sensor_id;sensor_type;location;lat;lon;timestamp;pressure;altitude;pressure_sealevel;temperature;humidity
43934;BME280;59081;42.706;23.306;2023-02-10T00:01:37;97068.00;;;-6.93;76.41
43934;BME280;59081;42.706;23.306;2023-02-10T00:04:04;96986.72;;;-7.51;75.97
43934;BME280;59081;42.706;23.306;2023-02-10T00:06:30;96930.03;;;-7.97;76.39
43934;BME280;59081;42.706;23.306;2023-02-10T00:08:58;96879.91;;;-8.26;76.66
43934;BME280;59081;42.706;23.306;2023-02-10T00:11:25;96982.53;;;-7.62;77.06
43934;BME280;59081;42.706;23.306;2023-02-10T00:14:11;96975.06;;;-7.70;77.41
43934;BME280;59081;42.706;23.306;2023-02-10T00:16:37;97013.22;;;-7.50;78.23
43934;BME280;59081;42.706;23.306;2023-02-10T00:19:03;96930.63;;;-8.11;78.08
43934;BME280;59081;42.706;23.306;2023-02-10T00:21:32;96900.22;;;-8.25;78.26
43934;BME280;59081;42.706;23.306;2023-02-10T00:24:01;96923.91;;;-8.08;78.79
43934;BME280;59081;42.706;23.306;2023-02-10T00:26:29;96965.00;;;-7.89;79.12
43934;BME280;59081;42.706;23.306;2023-02-10T00:28:55;97060.78;;;-7.37;79.94
43934;BME280;59081;42.706;23.306;2023-02-10T00:31:21;96962.91;;;-7.97;79.88
43934;BME280;59081;42.706;23.306;2023-02-10T00:33:47;97013.84;;;-7.63;80.09
43934;BME280;59081;42.706;23.306;2023-02-10T00:36:16;97054.34;;;-7.35;79.94
43934;BME280;59081;42.706;23.306;2023-02-10T00:38:46;97013.88;;;-7.78;81.69
43934;BME280;59081;42.706;23.306;2023-02-10T00:41:16;96860.34;;;-8.65;81.55
43934;BME280;59081;42.706;23.306;2023-02-10T00:43:42;97041.53;;;-7.44;81.48
43934;BME280;59081;42.706;23.306;2023-02-10T00:46:10;96972.81;;;-7.97;81.47
43934;BME280;59081;42.706;23.306;2023-02-10T00:48:36;96855.00;;;-8.65;81.67
43934;BME280;59081;42.706;23.306;2023-02-10T00:51:02;96918.47;;;-8.32;81.79
43934;BME280;59081;42.706;23.306;2023-02-10T00:53:29;96893.38;;;-8.46;82.32
43934;BME280;59081;42.706;23.306;2023-02-10T00:55:58;96907.78;;;-8.37;82.13
43934;BME280;59081;42.706;23.306;2023-02-10T00:58:24;96852.81;;;-8.53;81.42
43934;BME280;59081;42.706;23.306;2023-02-10T01:00:50;96873.66;;;-8.50;81.51
43934;BME280;59081;42.706;23.306;2023-02-10T01:03:16;96914.91;;;-8.22;81.59
43934;BME280;59081;42.706;23.306;2023-02-10T01:05:44;97031.97;;;-7.55;81.85
43934;BME280;59081;42.706;23.306;2023-02-10T01:08:10;96865.13;;;-8.62;81.71
43934;BME280;59081;42.706;23.306;2023-02-10T01:10:36;96858.75;;;-8.66;81.68
43934;BME280;59081;42.706;23.306;2023-02-10T01:13:03;97025.63;;;-7.64;82.19
43934;BME280;59081;42.706;23.306;2023-02-10T01:15:30;96888.09;;;-8.51;82.32
43934;BME280;59081;42.706;23.306;2023-02-10T01:17:55;96823.59;;;-8.99;82.43
43934;BME280;59081;42.706;23.306;2023-02-10T01:20:21;96846.00;;;-8.85;82.87
43934;BME280;59081;42.706;23.306;2023-02-10T01:22:47;96971.25;;;-8.09;83.53
43934;BME280;59081;42.706;23.306;2023-02-10T01:25:13;96864.44;;;-8.88;84.04
43934;BME280;59081;42.706;23.306;2023-02-10T01:27:38;96768.56;;;-9.54;84.82
43934;BME280;59081;42.706;23.306;2023-02-10T01:30:04;97020.66;;;-7.96;85.10
43934;BME280;59081;42.706;23.306;2023-02-10T01:32:30;96879.63;;;-8.79;84.91
43934;BME280;59081;42.706;23.306;2023-02-10T01:34:56;97018.78;;;-7.90;85.06
43934;BME280;59081;42.706;23.306;2023-02-10T01:37:21;96859.38;;;-8.85;84.90
43934;BME280;59081;42.706;23.306;2023-02-10T01:39:47;96886.56;;;-8.83;85.63
43934;BME280;59081;42.706;23.306;2023-02-10T01:42:14;96827.16;;;-9.24;86.54
43934;BME280;59081;42.706;23.306;2023-02-10T01:47:09;96928.72;;;-8.59;87.90
43934;BME280;59081;42.706;23.306;2023-02-10T01:49:39;96942.34;;;-8.56;88.17
43934;BME280;59081;42.706;23.306;2023-02-10T01:52:11;96881.31;;;-9.03;88.68
43934;BME280;59081;42.706;23.306;2023-02-10T01:54:45;97004.47;;;-8.25;88.59
43934;BME280;59081;42.706;23.306;2023-02-10T01:57:13;96999.38;;;-8.21;88.32
43934;BME280;59081;42.706;23.306;2023-02-10T01:59:39;96903.13;;;-8.75;88.43
43934;BME280;59081;42.706;23.306;2023-02-10T02:02:07;96936.19;;;-8.51;88.51
43934;BME280;59081;42.706;23.306;2023-02-10T02:05:04;96779.50;;;-9.56;88.45
43934;BME280;59081;42.706;23.306;2023-02-10T02:07:32;96962.06;;;-8.41;88.71
43934;BME280;59081;42.706;23.306;2023-02-10T02:10:02;96792.03;;;-9.56;88.89
43934;BME280;59081;42.706;23.306;2023-02-10T02:15:27;96881.31;;;-9.13;89.48
43934;BME280;59081;42.706;23.306;2023-02-10T02:18:06;96928.81;;;-8.95;89.83
43934;BME280;59081;42.706;23.306;2023-02-10T02:26:55;96803.50;;;-9.81;90.35
43934;BME280;59081;42.706;23.306;2023-02-10T02:29:49;96899.50;;;-9.20;90.49
43934;BME280;59081;42.706;23.306;2023-02-10T02:32:25;96867.50;;;-9.40;90.41
43934;BME280;59081;42.706;23.306;2023-02-10T02:34:56;96929.91;;;-9.06;90.58
43934;BME280;59081;42.706;23.306;2023-02-10T02:37:33;96831.50;;;-9.53;89.15
43934;BME280;59081;42.706;23.306;2023-02-10T02:40:00;96961.34;;;-8.77;89.34
43934;BME280;59081;42.706;23.306;2023-02-10T02:42:32;96925.38;;;-9.21;89.54
43934;BME280;59081;42.706;23.306;2023-02-10T03:01:51;96961.41;;;-9.08;87.66
43934;BME280;59081;42.706;23.306;2023-02-10T03:04:20;96867.53;;;-9.76;87.82
43934;BME280;59081;42.706;23.306;2023-02-10T03:06:45;96880.59;;;-9.74;87.95
43934;BME280;59081;42.706;23.306;2023-02-10T03:09:12;96788.09;;;-10.20;87.79
43934;BME280;59081;42.706;23.306;2023-02-10T03:11:37;96872.56;;;-9.64;87.86
43934;BME280;59081;42.706;23.306;2023-02-10T03:14:03;96768.88;;;-10.16;87.35
43934;BME280;59081;42.706;23.306;2023-02-10T03:16:28;96734.81;;;-10.45;87.21
43934;BME280;59081;42.706;23.306;2023-02-10T03:18:54;96771.84;;;-10.23;87.71
43934;BME280;59081;42.706;23.306;2023-02-10T03:21:20;96786.50;;;-10.26;87.80
43934;BME280;59081;42.706;23.306;2023-02-10T03:23:45;96874.44;;;-9.55;87.96
43934;BME280;59081;42.706;23.306;2023-02-10T03:26:11;96892.59;;;-9.36;87.43
43934;BME280;59081;42.706;23.306;2023-02-10T03:28:36;96758.00;;;-10.25;87.28
43934;BME280;59081;42.706;23.306;2023-02-10T03:31:04;96823.25;;;-9.77;87.39
43934;BME280;59081;42.706;23.306;2023-02-10T03:33:30;96792.06;;;-10.07;87.69
43934;BME280;59081;42.706;23.306;2023-02-10T03:35:55;96915.50;;;-9.25;88.42
43934;BME280;59081;42.706;23.306;2023-02-10T03:38:23;96781.69;;;-10.08;88.49
43934;BME280;59081;42.706;23.306;2023-02-10T03:40:50;96912.28;;;-9.17;88.49
43934;BME280;59081;42.706;23.306;2023-02-10T03:43:16;96762.50;;;-10.21;88.42
43934;BME280;59081;42.706;23.306;2023-02-10T03:45:41;96963.25;;;-8.93;88.89
43934;BME280;59081;42.706;23.306;2023-02-10T03:48:07;96816.56;;;-9.85;89.23
43934;BME280;59081;42.706;23.306;2023-02-10T03:50:32;96845.09;;;-9.60;88.94
43934;BME280;59081;42.706;23.306;2023-02-10T03:52:58;96938.69;;;-8.90;88.70
43934;BME280;59081;42.706;23.306;2023-02-10T03:55:25;96863.78;;;-9.55;88.86
43934;BME280;59081;42.706;23.306;2023-02-10T03:57:50;96929.38;;;-9.03;89.37
43934;BME280;59081;42.706;23.306;2023-02-10T04:00:17;96954.72;;;-9.05;89.64
43934;BME280;59081;42.706;23.306;2023-02-10T04:02:42;96720.69;;;-10.35;89.32
43934;BME280;59081;42.706;23.306;2023-02-10T04:05:08;96755.28;;;-10.10;88.70
43934;BME280;59081;42.706;23.306;2023-02-10T04:07:34;96730.28;;;-10.29;88.82
43934;BME280;59081;42.706;23.306;2023-02-10T04:10:02;96812.06;;;-9.79;88.98
43934;BME280;59081;42.706;23.306;2023-02-10T04:12:28;96692.16;;;-10.55;88.07
43934;BME280;59081;42.706;23.306;2023-02-10T04:14:56;96944.81;;;-9.00;88.36
43934;BME280;59081;42.706;23.306;2023-02-10T04:17:22;96724.69;;;-10.33;87.55
43934;BME280;59081;42.706;23.306;2023-02-10T04:19:48;96941.34;;;-8.95;87.73
43934;BME280;59081;42.706;23.306;2023-02-10T04:22:13;96775.81;;;-10.05;87.78
43934;BME280;59081;42.706;23.306;2023-02-10T04:24:39;96897.63;;;-9.30;87.86
43934;BME280;59081;42.706;23.306;2023-02-10T04:27:04;96755.03;;;-10.18;87.95
43934;BME280;59081;42.706;23.306;2023-02-10T04:29:30;96946.16;;;-8.97;88.30
43934;BME280;59081;42.706;23.306;2023-02-10T04:31:58;96937.34;;;-8.98;88.40
43934;BME280;59081;42.706;23.306;2023-02-10T04:34:26;96723.09;;;-10.39;88.59
43934;BME280;59081;42.706;23.306;2023-02-10T04:36:52;96773.97;;;-10.05;88.72
43934;BME280;59081;42.706;23.306;2023-02-10T04:39:18;96867.53;;;-9.56;88.74
43934;BME280;59081;42.706;23.306;2023-02-10T04:41:43;96853.38;;;-9.56;88.70
43934;BME280;59081;42.706;23.306;2023-02-10T04:44:11;96944.81;;;-8.85;87.79
43934;BME280;59081;42.706;23.306;2023-02-10T04:46:37;96901.38;;;-9.21;88.08
43934;BME280;59081;42.706;23.306;2023-02-10T04:49:02;96735.34;;;-10.43;88.70
43934;BME280;59081;42.706;23.306;2023-02-10T04:51:28;96808.84;;;-9.96;89.32
43934;BME280;59081;42.706;23.306;2023-02-10T04:53:53;96793.41;;;-9.99;89.14
43934;BME280;59081;42.706;23.306;2023-02-10T04:56:19;96956.84;;;-8.92;88.31
43934;BME280;59081;42.706;23.306;2023-02-10T04:58:44;96780.34;;;-10.11;88.19
43934;BME280;59081;42.706;23.306;2023-02-10T05:01:10;96906.44;;;-9.29;89.03
43934;BME280;59081;42.706;23.306;2023-02-10T05:03:35;96744.41;;;-10.24;88.31
43934;BME280;59081;42.706;23.306;2023-02-10T05:06:12;96764.59;;;-10.02;88.43
43934;BME280;59081;42.706;23.306;2023-02-10T05:08:38;96962.69;;;-8.80;88.63
43934;BME280;59081;42.706;23.306;2023-02-10T05:11:14;96751.59;;;-10.29;88.93
43934;BME280;59081;42.706;23.306;2023-02-10T05:13:43;96723.06;;;-10.54;89.68
43934;BME280;59081;42.706;23.306;2023-02-10T05:16:10;96770.22;;;-10.34;90.38
43934;BME280;59081;42.706;23.306;2023-02-10T05:18:39;96914.19;;;-9.43;91.10
43934;BME280;59081;42.706;23.306;2023-02-10T05:21:05;96779.56;;;-10.27;90.75
43934;BME280;59081;42.706;23.306;2023-02-10T05:23:33;96847.53;;;-9.94;90.37
43934;BME280;59081;42.706;23.306;2023-02-10T05:25:59;96974.22;;;-9.25;90.67
43934;BME280;59081;42.706;23.306;2023-02-10T05:28:27;96766.75;;;-10.60;90.64
43934;BME280;59081;42.706;23.306;2023-02-10T05:30:53;96966.50;;;-9.27;91.03
43934;BME280;59081;42.706;23.306;2023-02-10T05:33:22;96830.16;;;-10.16;90.80
43934;BME280;59081;42.706;23.306;2023-02-10T05:35:48;96739.84;;;-10.74;90.68
43934;BME280;59081;42.706;23.306;2023-02-10T05:38:16;96733.72;;;-10.74;90.53
43934;BME280;59081;42.706;23.306;2023-02-10T05:40:42;96884.56;;;-9.92;90.37
43934;BME280;59081;42.706;23.306;2023-02-10T05:43:07;96867.78;;;-10.08;90.77
43934;BME280;59081;42.706;23.306;2023-02-10T05:45:35;96860.56;;;-10.07;90.61
43934;BME280;59081;42.706;23.306;2023-02-10T05:48:01;96945.13;;;-9.62;90.03
43934;BME280;59081;42.706;23.306;2023-02-10T05:50:29;96875.75;;;-10.08;90.16
43934;BME280;59081;42.706;23.306;2023-02-10T05:52:54;96883.47;;;-10.01;90.56
43934;BME280;59081;42.706;23.306;2023-02-10T05:55:21;96824.31;;;-10.44;90.67
43934;BME280;59081;42.706;23.306;2023-02-10T05:57:46;97011.34;;;-9.19;90.83
43934;BME280;59081;42.706;23.306;2023-02-10T06:00:13;96833.91;;;-9.57;95.79
43934;BME280;59081;42.706;23.306;2023-02-10T06:02:38;96885.50;;;-8.76;90.63
43934;BME280;59081;42.706;23.306;2023-02-10T06:05:04;96896.00;;;-9.10;85.63
43934;BME280;59081;42.706;23.306;2023-02-10T06:07:30;96777.69;;;-10.36;88.14
43934;BME280;59081;42.706;23.306;2023-02-10T06:09:56;96885.13;;;-9.90;89.71
43934;BME280;59081;42.706;23.306;2023-02-10T06:12:21;96949.13;;;-9.60;90.32
43934;BME280;59081;42.706;23.306;2023-02-10T06:14:47;96786.97;;;-10.54;90.56
43934;BME280;59081;42.706;23.306;2023-02-10T06:17:12;96893.09;;;-9.80;90.80
43934;BME280;59081;42.706;23.306;2023-02-10T06:19:39;97040.44;;;-8.87;90.02
43934;BME280;59081;42.706;23.306;2023-02-10T06:22:06;96900.03;;;-9.79;89.69
43934;BME280;59081;42.706;23.306;2023-02-10T06:24:32;96987.56;;;-9.10;89.44
43934;BME280;59081;42.706;23.306;2023-02-10T06:26:57;96957.66;;;-9.32;88.82
43934;BME280;59081;42.706;23.306;2023-02-10T06:29:23;96968.88;;;-9.15;88.47
43934;BME280;59081;42.706;23.306;2023-02-10T06:31:49;96925.66;;;-9.32;87.88
43934;BME280;59081;42.706;23.306;2023-02-10T06:34:15;96897.91;;;-9.46;87.68
43934;BME280;59081;42.706;23.306;2023-02-10T06:36:41;96810.19;;;-10.09;86.57
43934;BME280;59081;42.706;23.306;2023-02-10T06:39:07;96974.50;;;-9.06;86.68
43934;BME280;59081;42.706;23.306;2023-02-10T06:41:33;96935.53;;;-9.23;85.63
43934;BME280;59081;42.706;23.306;2023-02-10T06:43:58;96906.41;;;-9.14;84.58
43934;BME280;59081;42.706;23.306;2023-02-10T06:46:24;97024.00;;;-8.29;83.40
43934;BME280;59081;42.706;23.306;2023-02-10T06:48:53;96923.47;;;-8.90;82.55
43934;BME280;59081;42.706;23.306;2023-02-10T06:51:19;96895.47;;;-9.13;81.28
43934;BME280;59081;42.706;23.306;2023-02-10T06:53:44;97063.44;;;-7.91;79.98
43934;BME280;59081;42.706;23.306;2023-02-10T06:56:11;96876.00;;;-9.33;79.86
43934;BME280;59081;42.706;23.306;2023-02-10T06:58:37;96993.88;;;-8.45;79.26
43934;BME280;59081;42.706;23.306;2023-02-10T07:01:11;96952.97;;;-8.40;78.42
43934;BME280;59081;42.706;23.306;2023-02-10T07:03:38;96967.56;;;-8.18;76.62
43934;BME280;59081;42.706;23.306;2023-02-10T07:06:04;97076.94;;;-7.52;77.62
43934;BME280;59081;42.706;23.306;2023-02-10T07:08:30;96935.59;;;-8.48;78.10
43934;BME280;59081;42.706;23.306;2023-02-10T07:10:55;97068.28;;;-7.39;78.52
43934;BME280;59081;42.706;23.306;2023-02-10T07:13:21;96930.31;;;-8.53;79.45
43934;BME280;59081;42.706;23.306;2023-02-10T07:15:47;96947.63;;;-8.40;78.99
43934;BME280;59081;42.706;23.306;2023-02-10T07:18:12;97041.69;;;-7.74;79.26
43934;BME280;59081;42.706;23.306;2023-02-10T07:20:38;96867.91;;;-6.50;97.96
43934;BME280;59081;42.706;23.306;2023-02-10T07:23:03;97027.44;;;-4.08;88.28
43934;BME280;59081;42.706;23.306;2023-02-10T07:25:29;97014.19;;;-6.68;74.83
43934;BME280;59081;42.706;23.306;2023-02-10T07:27:54;96900.00;;;-7.89;77.75
43934;BME280;59081;42.706;23.306;2023-02-10T07:30:20;96983.13;;;-7.76;78.85
43934;BME280;59081;42.706;23.306;2023-02-10T07:32:45;97062.25;;;-7.15;nan
43934;BME280;59081;42.706;23.306;2023-02-10T07:35:11;97008.25;;;-7.27;77.64
43934;BME280;59081;42.706;23.306;2023-02-10T07:37:38;96974.13;;;-7.51;76.71
43934;BME280;59081;42.706;23.306;2023-02-10T07:40:04;96903.38;;;-7.74;76.33
43934;BME280;59081;42.706;23.306;2023-02-10T07:42:30;96868.00;;;-7.99;75.98
43934;BME280;59081;42.706;23.306;2023-02-10T07:44:57;96901.31;;;-7.82;75.64
43934;BME280;59081;42.706;23.306;2023-02-10T07:47:23;96911.75;;;-7.46;75.37
43934;BME280;59081;42.706;23.306;2023-02-10T07:49:48;96923.53;;;-7.47;74.49
43934;BME280;59081;42.706;23.306;2023-02-10T07:52:16;96928.88;;;-7.47;74.43
43934;BME280;59081;42.706;23.306;2023-02-10T07:54:43;97032.47;;;-6.75;74.41
43934;BME280;59081;42.706;23.306;2023-02-10T07:57:09;96904.97;;;-7.73;74.46
43934;BME280;59081;42.706;23.306;2023-02-10T07:59:35;97068.31;;;-6.65;74.81
43934;BME280;59081;42.706;23.306;2023-02-10T08:02:00;96952.47;;;-7.15;74.58
43934;BME280;59081;42.706;23.306;2023-02-10T08:04:26;97063.00;;;-6.42;73.79
43934;BME280;59081;42.706;23.306;2023-02-10T08:06:52;96887.94;;;-7.48;72.69
43934;BME280;59081;42.706;23.306;2023-02-10T08:09:17;97005.66;;;-6.75;73.00
43934;BME280;59081;42.706;23.306;2023-02-10T08:11:43;96988.44;;;-6.63;72.05
43934;BME280;59081;42.706;23.306;2023-02-10T08:14:09;96980.25;;;-6.77;72.64
43934;BME280;59081;42.706;23.306;2023-02-10T08:16:34;97073.94;;;-6.09;72.06
43934;BME280;59081;42.706;23.306;2023-02-10T08:19:00;96917.03;;;-6.78;70.99
43934;BME280;59081;42.706;23.306;2023-02-10T08:21:26;96984.16;;;-6.17;69.77
43934;BME280;59081;42.706;23.306;2023-02-10T08:23:51;97021.00;;;-5.61;69.51
43934;BME280;59081;42.706;23.306;2023-02-10T08:26:20;96995.81;;;-5.65;69.23
43934;BME280;59081;42.706;23.306;2023-02-10T08:28:47;96928.72;;;-5.65;67.96
43934;BME280;59081;42.706;23.306;2023-02-10T08:31:12;96901.00;;;-5.79;67.16
43934;BME280;59081;42.706;23.306;2023-02-10T08:33:38;96924.94;;;-5.45;67.46
43934;BME280;59081;42.706;23.306;2023-02-10T08:36:07;96874.09;;;-5.23;64.58
43934;BME280;59081;42.706;23.306;2023-02-10T08:38:33;96900.03;;;-4.04;75.34
43934;BME280;59081;42.706;23.306;2023-02-10T08:40:59;96977.81;;;-3.17;61.31
43934;BME280;59081;42.706;23.306;2023-02-10T08:43:25;96980.00;;;-1.72;68.55
43934;BME280;59081;42.706;23.306;2023-02-10T08:45:51;96961.88;;;-0.43;60.19
43934;BME280;59081;42.706;23.306;2023-02-10T08:48:19;96881.25;;;-2.04;54.97
43934;BME280;59081;42.706;23.306;2023-02-10T08:50:45;96916.09;;;-0.74;60.01
43934;BME280;59081;42.706;23.306;2023-02-10T08:53:10;96896.97;;;-3.17;56.25
43934;BME280;59081;42.706;23.306;2023-02-10T08:55:36;96924.16;;;-3.63;59.06
43934;BME280;59081;42.706;23.306;2023-02-10T08:58:02;96953.47;;;-1.79;60.28
43934;BME280;59081;42.706;23.306;2023-02-10T09:00:27;96878.56;;;-2.61;54.75
43934;BME280;59081;42.706;23.306;2023-02-10T09:02:53;96974.53;;;-3.13;55.76
43934;BME280;59081;42.706;23.306;2023-02-10T09:05:19;96963.03;;;-4.05;59.08
43934;BME280;59081;42.706;23.306;2023-02-10T09:07:45;96878.94;;;-4.38;59.06
43934;BME280;59081;42.706;23.306;2023-02-10T09:10:12;96970.16;;;-3.59;58.21
43934;BME280;59081;42.706;23.306;2023-02-10T09:12:39;96846.53;;;-4.19;57.89
43934;BME280;59081;42.706;23.306;2023-02-10T09:15:05;96954.56;;;-3.48;57.88
43934;BME280;59081;42.706;23.306;2023-02-10T09:17:31;96992.44;;;-3.31;58.08
43934;BME280;59081;42.706;23.306;2023-02-10T09:19:56;96848.88;;;-3.68;56.85
43934;BME280;59081;42.706;23.306;2023-02-10T09:22:22;96906.56;;;-2.79;54.60
43934;BME280;59081;42.706;23.306;2023-02-10T09:24:49;96949.34;;;-2.87;54.83
43934;BME280;59081;42.706;23.306;2023-02-10T09:27:18;96823.97;;;-2.98;54.58
43934;BME280;59081;42.706;23.306;2023-02-10T09:29:44;96894.38;;;-2.68;53.16
43934;BME280;59081;42.706;23.306;2023-02-10T09:32:09;96815.41;;;-3.75;55.24
43934;BME280;59081;42.706;23.306;2023-02-10T09:34:35;96962.59;;;-2.99;56.29
43934;BME280;59081;42.706;23.306;2023-02-10T09:37:01;96806.44;;;-3.62;55.57
43934;BME280;59081;42.706;23.306;2023-02-10T09:39:28;96997.81;;;-2.73;56.84
43934;BME280;59081;42.706;23.306;2023-02-10T09:42:07;96925.97;;;-2.69;55.62
43934;BME280;59081;42.706;23.306;2023-02-10T09:44:35;96962.34;;;-1.79;54.07
43934;BME280;59081;42.706;23.306;2023-02-10T09:53:01;96836.00;;;-2.64;52.10
43934;BME280;59081;42.706;23.306;2023-02-10T09:55:34;96905.16;;;-1.55;50.90
43934;BME280;59081;42.706;23.306;2023-02-10T10:00:42;96944.22;;;-0.66;48.97
43934;BME280;59081;42.706;23.306;2023-02-10T10:03:14;96882.91;;;-1.09;49.94
43934;BME280;59081;42.706;23.306;2023-02-10T10:06:22;96922.78;;;-0.33;48.03
43934;BME280;59081;42.706;23.306;2023-02-10T10:09:10;96906.22;;;-0.31;47.33
43934;BME280;59081;42.706;23.306;2023-02-10T10:14:33;96941.56;;;-0.19;47.46
43934;BME280;59081;42.706;23.306;2023-02-10T10:22:56;96859.72;;;-0.33;46.14
43934;BME280;59081;42.706;23.306;2023-02-10T10:28:20;96937.41;;;1.04;43.96
43934;BME280;59081;42.706;23.306;2023-02-10T10:30:54;96722.25;;;-0.07;43.33
43934;BME280;59081;42.706;23.306;2023-02-10T10:33:30;96810.97;;;0.38;42.89
43934;BME280;59081;42.706;23.306;2023-02-10T10:35:59;96725.94;;;-0.32;43.93
43934;BME280;59081;42.706;23.306;2023-02-10T10:38:32;96872.06;;;0.56;43.58
43934;BME280;59081;42.706;23.306;2023-02-10T10:41:22;96781.72;;;0.10;44.05
43934;BME280;59081;42.706;23.306;2023-02-10T10:43:54;96760.22;;;0.05;43.55
43934;BME280;59081;42.706;23.306;2023-02-10T10:49:09;96772.41;;;0.53;42.64
43934;BME280;59081;42.706;23.306;2023-02-10T10:51:35;96748.41;;;0.63;42.00
43934;BME280;59081;42.706;23.306;2023-02-10T10:54:02;96838.41;;;1.23;42.11
43934;BME280;59081;42.706;23.306;2023-02-10T10:56:38;96898.38;;;3.32;46.51
43934;BME280;59081;42.706;23.306;2023-02-10T10:59:21;96896.09;;;2.78;40.78
43934;BME280;59081;42.706;23.306;2023-02-10T11:01:50;96770.31;;;1.77;39.88
43934;BME280;59081;42.706;23.306;2023-02-10T11:04:23;96803.81;;;1.81;40.69
43934;BME280;59081;42.706;23.306;2023-02-10T11:06:53;96825.88;;;1.91;40.79
43934;BME280;59081;42.706;23.306;2023-02-10T11:09:21;96884.28;;;2.34;40.24
43934;BME280;59081;42.706;23.306;2023-02-10T11:11:49;96879.31;;;2.36;40.58
43934;BME280;59081;42.706;23.306;2023-02-10T11:14:19;96854.66;;;2.57;39.92
43934;BME280;59081;42.706;23.306;2023-02-10T11:16:49;96843.72;;;2.97;39.39
43934;BME280;59081;42.706;23.306;2023-02-10T11:19:21;96806.41;;;2.54;38.38
43934;BME280;59081;42.706;23.306;2023-02-10T11:21:48;96794.06;;;2.72;38.41
43934;BME280;59081;42.706;23.306;2023-02-10T11:27:01;96860.69;;;2.90;38.70
43934;BME280;59081;42.706;23.306;2023-02-10T11:29:29;96857.22;;;3.05;38.60
43934;BME280;59081;42.706;23.306;2023-02-10T11:31:55;96803.03;;;3.47;37.07
43934;BME280;59081;42.706;23.306;2023-02-10T11:34:26;96854.44;;;4.12;36.18
43934;BME280;59081;42.706;23.306;2023-02-10T11:36:54;96755.09;;;3.94;35.08
43934;BME280;59081;42.706;23.306;2023-02-10T11:39:25;96848.88;;;4.24;34.74
43934;BME280;59081;42.706;23.306;2023-02-10T11:41:52;96804.34;;;3.69;35.41
43934;BME280;59081;42.706;23.306;2023-02-10T11:44:30;96845.16;;;3.97;36.77
43934;BME280;59081;42.706;23.306;2023-02-10T11:47:00;96761.66;;;4.28;34.91
43934;BME280;59081;42.706;23.306;2023-02-10T11:49:28;96775.78;;;4.91;34.20
43934;BME280;59081;42.706;23.306;2023-02-10T11:51:58;96761.72;;;4.89;33.52
43934;BME280;59081;42.706;23.306;2023-02-10T11:54:25;96689.59;;;3.55;33.99
43934;BME280;59081;42.706;23.306;2023-02-10T12:24:09;96799.06;;;5.04;33.73
43934;BME280;59081;42.706;23.306;2023-02-10T12:26:54;96747.72;;;5.85;32.77
43934;BME280;59081;42.706;23.306;2023-02-10T12:29:40;96713.94;;;5.48;32.14
43934;BME280;59081;42.706;23.306;2023-02-10T12:43:59;96785.22;;;7.01;31.52
43934;BME280;59081;42.706;23.306;2023-02-10T12:52:15;96643.78;;;6.86;30.34
43934;BME280;59081;42.706;23.306;2023-02-10T12:55:10;96768.50;;;7.10;30.71
43934;BME280;59081;42.706;23.306;2023-02-10T12:57:58;96700.00;;;7.13;33.20
43934;BME280;59081;42.706;23.306;2023-02-10T13:00:36;96777.47;;;7.10;31.12
43934;BME280;59081;42.706;23.306;2023-02-10T13:03:09;96666.84;;;5.84;33.32
43934;BME280;59081;42.706;23.306;2023-02-10T13:05:46;96769.84;;;7.30;31.47
43934;BME280;59081;42.706;23.306;2023-02-10T13:08:23;96727.78;;;6.41;31.88
43934;BME280;59081;42.706;23.306;2023-02-10T13:10:52;96665.97;;;6.07;32.34
43934;BME280;59081;42.706;23.306;2023-02-10T13:13:24;96736.53;;;6.87;31.92
43934;BME280;59081;42.706;23.306;2023-02-10T13:16:17;96772.53;;;6.86;31.66
43934;BME280;59081;42.706;23.306;2023-02-10T13:19:01;96771.81;;;6.92;31.59
43934;BME280;59081;42.706;23.306;2023-02-10T13:21:39;96775.78;;;6.65;31.86
43934;BME280;59081;42.706;23.306;2023-02-10T13:24:19;96655.13;;;5.84;32.66
43934;BME280;59081;42.706;23.306;2023-02-10T13:29:30;96774.34;;;6.15;33.00
43934;BME280;59081;42.706;23.306;2023-02-10T13:34:47;96756.91;;;4.82;35.09
43934;BME280;59081;42.706;23.306;2023-02-10T13:37:37;96781.13;;;5.26;35.68
43934;BME280;59081;42.706;23.306;2023-02-10T13:40:25;96775.81;;;6.09;34.25
43934;BME280;59081;42.706;23.306;2023-02-10T13:43:04;96701.81;;;5.22;34.95
43934;BME280;59081;42.706;23.306;2023-02-10T13:45:36;96742.59;;;5.57;34.71
43934;BME280;59081;42.706;23.306;2023-02-10T13:48:05;96640.91;;;5.18;34.29
43934;BME280;59081;42.706;23.306;2023-02-10T13:50:32;96763.66;;;6.99;33.28
43934;BME280;59081;42.706;23.306;2023-02-10T13:56:12;96724.13;;;6.30;33.20
43934;BME280;59081;42.706;23.306;2023-02-10T13:58:54;96648.25;;;5.41;33.91
43934;BME280;59081;42.706;23.306;2023-02-10T14:06:43;96772.50;;;4.82;37.06
43934;BME280;59081;42.706;23.306;2023-02-10T14:09:30;96750.59;;;4.59;37.52
43934;BME280;59081;42.706;23.306;2023-02-10T14:11:59;96761.88;;;4.58;37.69
43934;BME280;59081;42.706;23.306;2023-02-10T14:14:34;96731.88;;;4.38;37.53
43934;BME280;59081;42.706;23.306;2023-02-10T14:17:06;96694.78;;;3.60;38.60
43934;BME280;59081;42.706;23.306;2023-02-10T14:19:35;96683.84;;;2.94;39.97
43934;BME280;59081;42.706;23.306;2023-02-10T14:22:02;96761.03;;;3.33;40.39
43934;BME280;59081;42.706;23.306;2023-02-10T14:24:43;96659.13;;;2.39;40.94
43934;BME280;59081;42.706;23.306;2023-02-10T14:27:12;96705.31;;;2.24;42.41
43934;BME280;59081;42.706;23.306;2023-02-10T14:29:45;96704.09;;;2.21;42.55
43934;BME280;59081;42.706;23.306;2023-02-10T14:32:14;96757.41;;;2.97;42.24
43934;BME280;59081;42.706;23.306;2023-02-10T14:34:40;96761.09;;;2.89;42.56
43934;BME280;59081;42.706;23.306;2023-02-10T14:37:18;96739.81;;;2.63;43.15
43934;BME280;59081;42.706;23.306;2023-02-10T14:39:56;96629.84;;;2.05;42.70
43934;BME280;59081;42.706;23.306;2023-02-10T14:42:23;96747.81;;;2.72;42.97
43934;BME280;59081;42.706;23.306;2023-02-10T14:44:52;96659.59;;;1.86;43.76
43934;BME280;59081;42.706;23.306;2023-02-10T14:47:44;96598.72;;;1.34;43.58
43934;BME280;59081;42.706;23.306;2023-02-10T14:50:33;96754.84;;;2.17;44.16
43934;BME280;59081;42.706;23.306;2023-02-10T14:53:00;96754.03;;;2.17;44.41